Meteorología y climatología de Navarra
Datos de la estación - Meteo Navarra

Estación de Arangoiti GN

Altitud 1353 m.


Datos desde el 15/02/2020 hasta el 16/02/2020 en horario solar
Los datos son PROVISIONALES

Anterior Página 1 de 1 Siguiente Descargar: Formato para Excel 2000 o superior   Formato csv   Formato para OpenOffice Calc
Fecha Temperatura Humedad relativa Radiación global Insolación Precipitación Vel. viento 10 m Vel. viento 10 m Dir. viento 10 m
ºC % W/m² s l/m² m/s km/h º
15/02/2020 0:00 6.9 67 0.0 0 0.0 3.9 14.0 177
15/02/2020 0:10 6.8 68 0.0 0 0.0 4.1 14.9 173
15/02/2020 0:20 6.8 67 0.0 0 0.0 4.1 14.6 173
15/02/2020 0:30 6.7 68 0.0 0 0.0 3.2 11.6 177
15/02/2020 0:40 6.8 68 0.0 0 0.0 3.4 12.3 175
15/02/2020 0:50 6.3 72 0.0 0 0.0 4.4 15.9 170
15/02/2020 1:00 5.9 75 0.0 0 0.0 5.2 18.9 163
15/02/2020 1:10 5.8 74 0.0 0 0.0 5.4 19.4 162
15/02/2020 1:20 5.7 74 0.0 0 0.0 5.3 19.0 160
15/02/2020 1:30 6.0 73 0.0 0 0.0 5.0 17.8 165
15/02/2020 1:40 5.9 73 0.0 0 0.0 5.2 18.6 162
15/02/2020 1:50 5.9 74 0.0 0 0.0 5.1 18.4 160
15/02/2020 2:00 5.8 75 0.0 0 0.0 5.3 19.2 160
15/02/2020 2:10 6.1 74 0.0 0 0.0 5.3 18.9 161
15/02/2020 2:20 5.9 75 0.0 0 0.0 5.4 19.4 158
15/02/2020 2:30 5.8 76 0.0 0 0.0 5.8 20.7 159
15/02/2020 2:40 5.8 76 0.0 0 0.0 6.0 21.5 165
15/02/2020 2:50 5.6 77 0.0 0 0.0 6.4 23.1 166
15/02/2020 3:00 5.8 75 0.0 0 0.0 6.5 23.3 171
15/02/2020 3:10 5.5 77 0.0 0 0.0 6.5 23.2 166
15/02/2020 3:20 5.5 78 0.0 0 0.0 7.0 25.3 163
15/02/2020 3:30 5.3 78 0.0 0 0.0 6.8 24.3 163
15/02/2020 3:40 5.6 77 0.0 0 0.0 6.4 23.0 159
15/02/2020 3:50 5.8 74 0.0 0 0.0 6.6 23.9 163
15/02/2020 4:00 6.2 73 0.0 0 0.0 6.5 23.5 166
15/02/2020 4:10 5.7 74 0.0 0 0.0 7.5 26.9 166
15/02/2020 4:20 5.5 77 0.0 0 0.0 8.1 29.3 162
15/02/2020 4:30 5.6 76 0.0 0 0.0 8.0 28.7 163
15/02/2020 4:40 5.5 75 0.0 0 0.0 7.7 27.6 165
15/02/2020 4:50 5.3 75 0.0 0 0.0 9.2 33.2 163
15/02/2020 5:00 5.3 78 0.0 0 0.0 10.0 35.9 163
15/02/2020 5:10 5.5 77 0.0 0 0.0 9.6 34.7 168
15/02/2020 5:20 5.5 76 0.0 0 0.0 8.3 29.7 172
15/02/2020 5:30 5.3 76 0.0 0 0.0 8.6 31.1 172
15/02/2020 5:40 5.5 76 0.0 0 0.0 9.2 33.2 170
15/02/2020 5:50 5.6 75 0.0 0 0.0 10.4 37.3 172
15/02/2020 6:00 5.2 79 0.0 0 0.0 10.6 38.3 172
15/02/2020 6:10 4.8 81 0.0 0 0.0 9.9 35.5 173
15/02/2020 6:20 4.8 81 0.0 0 0.0 9.5 34.1 173
15/02/2020 6:30 5.0 79 0.0 0 0.0 9.5 34.3 175
15/02/2020 6:40 5.1 79 0.0 0 0.0 8.9 32.2 178
15/02/2020 6:50 5.3 77 0.0 0 0.0 8.5 30.6 179
15/02/2020 7:00 5.0 77 3.9 0 0.0 8.6 30.9 177
15/02/2020 7:10 5.1 77 19.7 0 0.0 9.0 32.4 172
15/02/2020 7:20 5.8 76 30.7 366 0.0 9.6 34.5 170
15/02/2020 7:30 6.1 75 43.1 600 0.0 9.1 32.9 169
15/02/2020 7:40 6.8 73 67.0 600 0.0 9.1 32.8 171
15/02/2020 7:50 7.0 74 97.7 600 0.0 9.2 33.0 172
15/02/2020 8:00 7.2 73 126.4 600 0.0 9.4 33.9 171
15/02/2020 8:10 7.4 74 155.4 600 0.0 9.8 35.4 173
15/02/2020 8:20 7.5 73 185.3 600 0.0 10.1 36.5 174
15/02/2020 8:30 7.8 73 214.3 600 0.0 9.7 34.9 173
15/02/2020 8:40 8.4 72 243.5 600 0.0 9.1 32.8 174
15/02/2020 8:50 8.3 71 273.5 600 0.0 9.3 33.6 172
15/02/2020 9:00 8.3 72 302.6 600 0.0 9.5 34.3 173
15/02/2020 9:10 8.5 71 115.9 130 0.0 9.6 34.5 173
15/02/2020 9:20 8.5 72 351.4 600 0.0 9.8 35.2 171
15/02/2020 9:30 8.7 71 383.0 600 0.0 9.1 32.9 172
15/02/2020 9:40 8.4 72 407.3 600 0.0 9.1 32.6 171
15/02/2020 9:50 8.5 71 430.2 600 0.0 9.1 32.7 171
15/02/2020 10:00 9.8 67 451.7 600 0.0 8.4 30.4 169
15/02/2020 10:10 9.7 67 472.2 600 0.0 8.1 29.3 169
15/02/2020 10:20 9.8 67 492.4 600 0.0 8.7 31.1 172
15/02/2020 10:30 10.2 66 512.3 600 0.0 8.4 30.3 171
15/02/2020 10:40 10.0 66 529.8 600 0.0 8.8 31.5 168
15/02/2020 10:50 9.7 68 546.4 600 0.0 9.6 34.7 166
15/02/2020 11:00 9.8 67 562.1 600 0.0 10.1 36.2 169
15/02/2020 11:10 10.2 66 576.2 600 0.0 10.4 37.3 168
15/02/2020 11:20 10.1 66 587.2 600 0.0 10.3 37.0 170
15/02/2020 11:30 9.8 68 596.6 600 0.0 9.8 35.1 172
15/02/2020 11:40 10.4 67 604.1 600 0.0 9.1 32.9 172
15/02/2020 11:50 10.6 66 610.2 600 0.0 9.1 32.6 172
15/02/2020 12:00 10.4 67 615.5 600 0.0 9.3 33.3 172
15/02/2020 12:10 10.7 67 619.6 600 0.0 10.2 36.8 176
15/02/2020 12:20 10.3 69 623.3 600 0.0 9.7 34.8 168
15/02/2020 12:30 10.8 67 620.1 600 0.0 9.8 35.2 174
15/02/2020 12:40 10.4 70 619.2 600 0.0 10.5 37.8 171
15/02/2020 12:50 10.5 69 622.4 600 0.0 10.6 38.0 169
15/02/2020 13:00 10.5 68 591.7 600 0.0 10.6 38.1 171
15/02/2020 13:10 10.4 70 560.5 600 0.0 11.0 39.7 175
15/02/2020 13:20 10.7 69 594.3 600 0.0 11.0 39.5 172
15/02/2020 13:30 10.1 71 506.7 600 0.0 10.4 37.5 169
15/02/2020 13:40 10.0 71 460.6 600 0.0 10.3 37.1 167
15/02/2020 13:50 10.4 70 540.9 600 0.0 10.1 36.4 169
15/02/2020 14:00 10.2 71 492.9 600 0.0 10.1 36.5 164
15/02/2020 14:10 10.8 71 472.9 600 0.0 9.4 33.9 168
15/02/2020 14:20 10.0 70 310.5 580 0.0 8.6 31.1 170
15/02/2020 14:30 10.1 72 262.5 546 0.0 8.7 31.2 179
15/02/2020 14:40 9.7 72 282.5 600 0.0 9.4 33.7 187
15/02/2020 14:50 9.5 71 287.2 600 0.0 9.8 35.4 187
15/02/2020 15:00 10.4 62 328.0 600 0.0 9.6 34.5 184
15/02/2020 15:10 9.7 67 264.1 600 0.0 8.7 31.4 184
15/02/2020 15:20 9.5 75 218.0 600 0.0 8.0 28.8 185
15/02/2020 15:30 9.2 75 195.7 600 0.0 8.8 31.5 183
15/02/2020 15:40 8.9 74 171.1 84 0.0 10.5 37.7 183
15/02/2020 15:50 8.9 72 151.7 0 0.0 10.8 38.9 182
15/02/2020 16:00 8.8 73 127.1 0 0.0 10.5 37.8 179
15/02/2020 16:10 8.8 63 107.8 0 0.0 11.4 41.1 179
15/02/2020 16:20 8.6 63 94.4 0 0.0 10.7 38.5 175
15/02/2020 16:30 8.9 59 83.4 0 0.0 10.4 37.3 173
15/02/2020 16:40 8.9 59 70.6 0 0.0 10.7 38.6 183
15/02/2020 16:50 9.0 60 60.4 0 0.0 9.7 34.8 184
15/02/2020 17:00 8.9 62 50.3 0 0.0 9.2 32.9 182
15/02/2020 17:10 8.7 60 40.6 442 0.0 9.0 32.3 175
15/02/2020 17:20 8.6 64 26.7 158 0.0 9.4 33.9 174
15/02/2020 17:30 8.3 71 18.1 0 0.0 9.2 33.2 168
15/02/2020 17:40 8.3 75 9.1 0 0.0 8.9 31.9 163
15/02/2020 17:50 8.3 74 0.0 0 0.0 8.3 29.8 163
15/02/2020 18:00 8.0 77 0.0 0 0.0 8.7 31.1 165
15/02/2020 18:10 8.3 77 0.0 0 0.0 8.7 31.2 165
15/02/2020 18:20 8.2 76 0.0 0 0.0 8.1 29.2 161
15/02/2020 18:30 8.3 75 0.0 0 0.0 8.2 29.7 158
15/02/2020 18:40 8.5 70 0.0 0 0.0 8.3 29.7 159
15/02/2020 18:50 8.3 71 0.0 0 0.0 9.2 33.0 160
15/02/2020 19:00 8.3 69 0.0 0 0.0 8.9 31.9 162
15/02/2020 19:10 8.3 68 0.0 0 0.0 8.9 32.1 163
15/02/2020 19:20 8.3 66 0.0 0 0.0 9.1 32.8 162
15/02/2020 19:30 8.4 67 0.0 0 0.0 9.2 32.9 163
15/02/2020 19:40 8.3 70 0.0 0 0.0 9.1 32.8 165
15/02/2020 19:50 8.3 69 0.0 0 0.0 9.3 33.3 166
15/02/2020 20:00 8.1 70 0.0 0 0.0 9.6 34.5 171
15/02/2020 20:10 8.2 68 0.0 0 0.0 9.4 33.9 172
15/02/2020 20:20 8.0 69 0.0 0 0.0 9.2 33.2 170
15/02/2020 20:30 8.2 66 0.0 0 0.0 9.4 33.9 170
15/02/2020 20:40 8.0 66 0.0 0 0.0 9.3 33.4 165
15/02/2020 20:50 8.2 64 0.0 0 0.0 9.0 32.4 164
15/02/2020 21:00 8.0 65 0.0 0 0.0 9.0 32.4 166
15/02/2020 21:10 8.1 65 0.0 0 0.0 9.2 33.2 169
15/02/2020 21:20 8.0 66 0.0 0 0.0 9.4 33.7 171
15/02/2020 21:30 8.0 67 0.0 0 0.0 9.2 33.0 173
15/02/2020 21:40 8.2 66 0.0 0 0.0 9.3 33.3 171
15/02/2020 21:50 8.0 66 0.0 0 0.0 9.5 34.3 172
15/02/2020 22:00 8.0 65 0.0 0 0.0 9.4 33.8 169
15/02/2020 22:10 8.0 66 0.0 0 0.0 9.6 34.5 173
15/02/2020 22:20 8.0 67 0.0 0 0.0 10.1 36.5 173
15/02/2020 22:30 7.8 68 0.0 0 0.0 9.7 34.8 171
15/02/2020 22:40 7.9 67 0.0 0 0.0 8.5 30.6 171
15/02/2020 22:50 8.1 67 0.0 0 0.0 8.5 30.4 170
15/02/2020 23:00 8.0 66 0.0 0 0.0 9.1 32.8 169
15/02/2020 23:10 8.0 67 0.0 0 0.0 10.5 37.6 168
15/02/2020 23:20 7.4 69 0.0 0 0.0 11.2 40.1 163
15/02/2020 23:30 7.4 69 0.0 0 0.0 10.8 39.0 159
15/02/2020 23:40 7.6 69 0.0 0 0.0 11.1 40.0 158
15/02/2020 23:50 7.5 69 0.0 0 0.0 11.4 41.1 158
Anterior Página 1 de 1 Siguiente
Los datos de precipitación registrados en estaciones que están en cumbres son inferiores a lo real, como consecuencia del efecto del viento y de la nieve.


NOTA: Tipo de datos según el color:
   - Valores diarios o 10 minutos correctos
   - Valores diarios calculados a partir de un número de datos 10 minutos menor que 144 y mayor que 120, o de un número de datos semihorarios menor que 48 y mayor que 40 (caso de las estaciones de INTIA y del Ministerio)
   - Valores diez minutos estimados


Contacto        Enlaces        Aviso legal